Pagina principale
METAR-TAF:

METAR-TAF

Aeroporti :

Port Elizabeth, Sudafrica

latitudine: 33-59S, longitudine: 025-36E, altezza: 61 m

Osservazione

Il bollettino è stato emesso 17 minuti fa, alle 02:07 UTC
Vento 2 kt da ovest/sud-ovest
Temperature 12°C
Umidità 88%
Pressione 1023 hPa
Visibilità 10 km o più
nessuna nube inferiore a 1500 m e nessun cumulonembo

METAR: FAPE 240207Z 25002KT CAVOK 12/10 Q1023 NOSIG

Ora: 04:24 (02:24 UTC)

Previsione

Il bollettino è stato emesso 4 ore e 24 minuti fa, alle 22:00 UTC
Previsione valida dal 24 alle 00 UTC al 24 alle 24 UTC
Vento 4 kt da est/nord-est
Visibilità 10 km o più
Nubi sparse ad un'altezza di 2000 ft
A partire da 24 alle 1200 UTC
Vento 9 kt da est/sud-est
Visibilità 10 km o più
nessuna nube inferiore a 1500 m e nessun cumulonembo
Evoluzione graduale
dal 24 alle 19 UTC al 24 alle 21 UTC
Vento 10 kt da est/nord-est

TAF: FAPE 232200Z 2400/2424 06004KT 9999 SCT020 TX26/2412Z TN14/2403Z FM241200 12009KT CAVOK BECMG 2419/2421 06010KT

Osservazioni e previsioni meteorologiche di più di 4000 aeroporti (messaggi METAR e TAF).

Le stazioni disponibili sono rappresentate dai dischi gialli e rossi sulla carta.

Puntare il mouse per vedere il nome della stazione.

Clicca sopra per visualizzare le osservazioni e previsioni meteorologiche.

Per cambiare la mappa : fare clic sui pulsanti verdi con una croce nera per ingrandire, il pulsante verde con un trattino per diminuire, o sulla freccia verde per le mappe adiacenti.


METAR-TAF: